Westfield, WI

9:31 AM CDT on April 21, 2015 (GMT -0500)
Westfield School Transportation | | Change Station
CLOSE
Current Station
Personal Weather Station
Location: Westfield, WI
Elevation: 867 ft
Nearby Weather Stations

Elev 867 ft 43.88 °N, 89.49 °W | Updated 39 days ago

Rain
Rain
43 °F
Feels Like 34 °F
N
20
Wind Variable Wind from West
Gusts 25 mph

Today
High -- | Low -- °F
--% Chance of Precip.
Yesterday
High -- | Low -- °F
Precip. -- in
6:05 AM 7:48 PM
Waxing Crescent, 10% visible
Pressure 29.48 in
Visibility 8.0 miles
Clouds Few 400 ft
Mostly Cloudy 2200 ft
Overcast 4600 ft
Windchill 34 °F
Dew Point 24 °F
Humidity 47%
Rainfall in
Snow Depth Not available.
UV 1 out of 12
Pollen 7.30 out of 12
Air Quality Not available.
Flu Activity Local Activity
SPECI KY50 211423Z AUTO 29016KT 8SM -RA FEW004 BKN022 OVC046 03/M01 A2948 RMK AO2 TSNO CIG 016V029 UPE05RAB03 P0000

More Conditions Fewer Conditions

Pressure 29.48 in
Visibility 8.0 miles
Clouds Few 400 ft
Mostly Cloudy 2200 ft
Overcast 4600 ft
Windchill 34 °F
Dew Point 24 °F
Humidity 47%
Rainfall in
Snow Depth Not available.
UV 1 out of 12
Pollen 7.30 out of 12
Air Quality Not available.
Flu Activity Local Activity
SPECI KY50 211423Z AUTO 29016KT 8SM -RA FEW004 BKN022 OVC046 03/M01 A2948 RMK AO2 TSNO CIG 016V029 UPE05RAB03 P0000

More Conditions Fewer Conditions

10-Day Weather Forecast

Almanac

Astronomy

Apr. 21, 2015 Rise Set
Actual Time
Civil Twilight
Nautical Twilight
Astronomical Twilight
Moon
Length of Visible Light
Length of Day
Tomorrow will be .
, % of the Moon is Illuminated

Today's Extremes

State Highs State Lows

Community

WunderPhotos

Upload Photos

1,815,408 photos uploaded!

WunderBlogs® & News

Nearby

Air Quality

  Air Quality AQ Index Pollutant
Not available.

Snow Depth

Station Depth Elevation

Earthquake Activity

City Distance Mag. Time & Date
Minimum magnitude displayed is 2.5.

Coastal Water Temperatures

Place Temperature

Stations

Nearby Weather Stations

Station Location Temp. Windchill Dew Point Humidity Wind Precip. Elev Updated Type